Archival Weather

South Haven Area Rgnl

South Haven, Michigan (KLWA)

Report from: Tuesday, September 19, 2023 5:35 AM EDT
Current time: Tuesday, July 16, 2024 6:20 AM EDT

Current weather – Weather history – Daily summaries
Weather forecast

Temperature10.3°C (50.5°F)
Dew point9.5°C (49.1°F)
Winds Calm
Visibility10 mi. (16.1 km)
Clouds Scattered clouds 4,900 ft. (1,494 m)
Ceiling: Broken clouds 7,000 ft. (2,134 m)
Altimeter30.05 in.Hg (1018 mB)
Relative humidity95 %
Density altitude-541 ft. (-165 m)
Remarks Fully automated report
Automated weather observing station with precipitation discriminator
Flight conditions Visual Meteorological Conditions
Raw dataKLWA 190935Z AUTO 00000KT 10SM SCT049 BKN070 10/10 A3005 RMK AO2 T01030095
An error has occurred. This application may no longer respond until reloaded. Reload 🗙